Time;durP1;ratioP1;P1;durP2;ratioP2;P2;SDS_P1;SDS_P2;PMS_P1;PMS_P2;Temp;Humidity;BMP_temperature;BMP_pressure;BME280_temperature;BME280_humidity;BME280_pressure;Samples;Min_cycle;Max_cycle;Signal;HPM_P1;HPM_P2
2022/06/08 00:00:16;;;;;;;5.30;3.83;;;17.30;66.90;;;19.98;50.43;100998.69;5155395;27;20203;-59
2022/06/08 00:02:48;;;;;;;6.73;3.60;;;17.30;66.90;;;19.97;50.62;100996.22;5159264;27;20285;-59
2022/06/08 00:05:15;;;;;;;5.67;3.70;;;17.30;67.00;;;19.96;50.62;100995.41;5167004;27;20220;-60
2022/06/08 00:07:43;;;;;;;3.53;3.10;;;17.30;67.00;;;19.95;50.78;100988.44;5101612;28;20196;-60
2022/06/08 00:10:11;;;;;;;7.70;3.50;;;17.20;66.80;;;19.92;50.77;100988.09;5077240;28;20338;-59
2022/06/08 00:12:50;;;;;;;4.90;3.63;;;17.20;66.90;;;19.91;50.42;100992.63;5172027;27;20617;-57
2022/06/08 00:15:20;;;;;;;6.43;4.43;;;17.20;66.90;;;19.83;50.76;100990.25;5126052;28;20219;-59
2022/06/08 00:17:46;;;;;;;5.30;3.73;;;17.20;67.00;;;19.70;51.10;100987.81;5093283;28;20199;-58
2022/06/08 00:20:14;;;;;;;3.83;3.50;;;17.20;66.90;;;19.66;51.43;100983.94;5094737;27;20233;-59
2022/06/08 00:22:42;;;;;;;4.47;4.03;;;17.20;67.20;;;19.64;51.45;100988.69;5131005;27;20283;-58
2022/06/08 00:25:10;;;;;;;4.37;3.80;;;17.10;67.50;;;19.67;51.11;100990.94;5127706;27;20222;-59
2022/06/08 00:27:38;;;;;;;5.07;3.80;;;17.10;67.60;;;19.68;51.60;100981.88;5145820;27;20281;-59
2022/06/08 00:30:04;;;;;;;3.70;3.40;;;17.10;67.90;;;19.67;51.47;100974.91;5051296;28;20209;-60
2022/06/08 00:32:30;;;;;;;6.50;3.93;;;17.00;68.60;;;19.67;51.14;100969.56;4811963;29;20220;-59
2022/06/08 00:35:11;;;;;;;4.10;3.70;;;17.00;68.00;;;19.65;51.28;100968.97;5163552;27;21132;-61
2022/06/08 00:37:37;;;;;;;7.57;4.60;;;17.00;68.10;;;19.65;51.17;100970.81;5126698;28;20200;-61
2022/06/08 00:40:08;;;;;;;4.67;3.90;;;17.00;68.30;;;19.64;51.85;100970.00;5098848;28;20210;-61
2022/06/08 00:42:35;;;;;;;4.53;4.00;;;16.90;68.40;;;19.64;51.44;100970.00;5108791;28;20241;-61
2022/06/08 00:45:07;;;;;;;4.10;3.33;;;16.90;68.40;;;19.64;51.78;100964.66;5098418;28;20277;-60
2022/06/08 00:47:42;;;;;;;4.20;3.73;;;16.90;68.60;;;19.65;51.45;100971.66;5110789;27;20919;-61
2022/06/08 00:50:15;;;;;;;5.23;4.20;;;16.90;68.70;;;19.64;51.65;100970.00;5053194;28;20607;-60
2022/06/08 00:54:00;;;;;;;5.23;3.70;;;16.90;68.80;;;19.65;51.92;100960.97;4909695;28;20732;-60
2022/06/08 00:56:26;;;;;;;4.30;3.53;;;17.00;68.90;;;19.62;52.21;100956.06;4783465;29;20234;-59
2022/06/08 01:01:31;;;;;;;6.60;3.97;;;17.00;68.70;;;19.66;51.73;100957.22;5171940;27;20621;-61
2022/06/08 01:04:11;;;;;;;4.90;3.70;;;17.00;68.60;;;19.63;51.72;100952.38;5150704;27;20221;-60
2022/06/08 01:06:41;;;;;;;4.03;3.60;;;17.00;68.40;;;19.64;51.64;100948.63;5109698;28;20200;-61
2022/06/08 01:09:20;;;;;;;5.80;3.83;;;17.00;68.20;;;19.60;51.82;100960.84;5122827;28;20508;-60
2022/06/08 01:11:48;;;;;;;4.40;4.00;;;17.00;68.20;;;19.57;51.39;100953.25;5077515;28;20201;-59
2022/06/08 01:14:19;;;;;;;4.00;3.70;;;17.00;68.80;;;19.51;51.49;100954.19;4843163;28;20622;-60
2022/06/08 01:16:54;;;;;;;5.43;4.17;;;16.90;68.00;;;19.44;52.10;100945.47;4830623;29;20206;-58
2022/06/08 01:19:21;;;;;;;6.27;4.83;;;16.90;68.40;;;19.45;51.96;100947.06;4736066;30;20218;-60
2022/06/08 01:22:02;;;;;;;5.40;4.30;;;16.80;68.80;;;19.44;52.14;100943.63;4726640;30;20223;-61
2022/06/08 01:27:45;;;;;;;5.27;4.77;;;16.80;69.10;;;19.44;52.33;100943.63;5171840;27;20633;-57
2022/06/08 01:30:21;;;;;;;5.43;4.43;;;16.80;69.50;;;19.47;52.12;100939.63;5122373;28;20203;-58
2022/06/08 01:33:30;;;;;;;4.40;3.53;;;16.80;69.50;;;19.41;52.30;100932.56;5116859;28;20654;-59
2022/06/08 01:36:39;;;;;;;6.33;4.73;;;16.80;69.60;;;19.40;52.48;100937.06;5054468;28;20236;-59
2022/06/08 01:39:14;;;;;;;6.70;5.60;;;16.80;69.30;;;19.34;52.58;100943.31;4866712;29;20684;-61
2022/06/08 01:42:06;;;;;;;5.87;5.27;;;16.80;69.30;;;19.17;52.75;100941.47;4898475;29;20205;-59
2022/06/08 01:47:53;;;;;;;5.70;5.13;;;16.80;70.40;;;18.84;53.83;100932.06;5171724;27;21113;-57
2022/06/08 01:50:54;;;;;;;6.33;5.73;;;16.50;70.10;;;18.66;54.75;100934.72;5095362;28;20579;-59
2022/06/08 01:53:42;;;;;;;8.67;6.20;;;16.40;70.30;;;18.51;54.60;100926.28;5072919;28;20207;-59
2022/06/08 01:56:21;;;;;;;6.60;6.00;;;16.20;70.70;;;18.41;54.91;100920.63;5038712;28;20222;-60
2022/06/08 01:59:03;;;;;;;6.73;6.13;;;16.10;71.20;;;18.34;55.17;100924.38;4982594;28;20710;-60
2022/06/08 02:01:45;;;;;;;6.73;5.93;;;16.00;71.70;;;18.27;55.51;100919.94;4825992;29;20248;-60
2022/06/08 02:04:23;;;;;;;7.67;6.27;;;15.90;72.00;;;18.22;55.29;100921.63;4688761;30;20218;-61
2022/06/08 02:06:50;;;;;;;10.20;6.57;;;15.80;72.40;;;18.14;55.83;100924.56;4604926;30;20239;-66
2022/06/08 02:12:02;;;;;;;7.53;6.73;;;15.70;72.80;;;17.98;56.23;100906.47;5171882;27;20637;-61
2022/06/08 02:14:39;;;;;;;8.43;6.87;;;15.60;73.30;;;17.96;55.89;100900.56;5130029;27;20534;-58
2022/06/08 02:17:15;;;;;;;6.73;6.00;;;15.50;73.10;;;18.00;56.51;100897.22;5094712;28;20729;-61
2022/06/08 02:19:48;;;;;;;8.20;5.53;;;15.50;74.10;;;18.12;56.01;100906.13;5082166;28;20200;-58
2022/06/08 02:22:23;;;;;;;6.30;5.63;;;15.50;73.90;;;18.22;55.83;100900.31;4988842;28;20192;-59
2022/06/08 02:24:55;;;;;;;6.37;5.63;;;15.60;73.80;;;18.28;55.46;100899.41;5001907;28;20671;-61
2022/06/08 02:27:32;;;;;;;6.37;5.77;;;15.60;73.50;;;18.35;55.13;100904.69;4935541;29;20203;-57
2022/06/08 02:29:58;;;;;;;5.97;5.27;;;15.70;73.50;;;18.39;55.27;100892.53;4825485;29;20593;-58
2022/06/08 02:35:12;;;;;;;8.50;5.93;;;15.70;73.20;;;18.42;55.09;100900.94;5163835;27;20654;-60
2022/06/08 02:37:45;;;;;;;9.17;5.90;;;15.70;73.20;;;18.36;55.21;100896.47;5109830;28;20199;-61
2022/06/08 02:40:18;;;;;;;11.33;6.63;;;15.70;73.10;;;18.29;55.52;100898.38;5118856;28;20263;-60
2022/06/08 02:42:52;;;;;;;7.40;6.70;;;15.70;73.10;;;18.24;55.44;100899.06;5129190;28;20612;-60
2022/06/08 02:45:25;;;;;;;7.23;5.63;;;15.70;73.10;;;18.28;55.48;100888.75;5083249;28;20274;-59
2022/06/08 02:48:01;;;;;;;6.83;6.10;;;15.70;73.10;;;18.35;55.44;100888.69;5017730;28;20543;-62
2022/06/08 02:50:30;;;;;;;8.27;6.67;;;15.70;73.40;;;18.33;55.30;100886.25;4638150;29;20220;-60
2022/06/08 02:53:45;;;;;;;6.57;5.97;;;15.70;73.40;;;18.22;55.73;100879.00;4735723;30;20644;-58
2022/06/08 02:56:11;;;;;;;8.10;5.37;;;15.70;73.30;;;18.27;55.64;100881.81;4552122;31;20267;-60
2022/06/08 03:01:22;;;;;;;7.40;6.60;;;15.70;73.20;;;18.28;55.56;100883.41;5171781;27;20637;-61
2022/06/08 03:03:55;;;;;;;7.73;6.73;;;15.70;73.50;;;18.28;55.67;100876.25;5132359;27;20219;-60
2022/06/08 03:06:28;;;;;;;8.37;6.67;;;15.70;73.40;;;18.33;55.55;100880.91;5137300;27;20210;-60
2022/06/08 03:08:58;;;;;;;8.43;6.80;;;15.70;73.60;;;18.39;55.63;100880.03;5140921;27;20194;-60
2022/06/08 03:11:35;;;;;;;8.43;6.03;;;15.70;73.50;;;18.45;55.33;100884.47;5125704;27;20187;-60
2022/06/08 03:14:09;;;;;;;7.83;6.00;;;15.80;73.60;;;18.51;55.26;100883.63;5065370;28;20198;-60
2022/06/08 03:16:41;;;;;;;6.57;5.27;;;15.90;73.60;;;18.63;54.93;100881.84;4952965;28;20308;-60
2022/06/08 03:19:10;;;;;;;6.93;6.30;;;15.90;73.60;;;18.75;54.84;100884.56;4997381;28;20657;-60
2022/06/08 03:21:51;;;;;;;7.83;5.60;;;16.00;73.40;;;18.81;54.65;100889.00;4942987;28;20213;-60
2022/06/08 03:27:00;;;;;;;8.63;6.80;;;16.10;73.10;;;18.81;54.33;100879.16;5171814;27;20641;-60
2022/06/08 03:29:27;;;;;;;8.80;6.87;;;16.10;72.40;;;18.76;54.53;100876.34;5132328;27;20543;-60
2022/06/08 03:31:59;;;;;;;7.23;6.53;;;16.20;72.30;;;18.74;54.52;100878.41;5124207;28;20207;-60
2022/06/08 03:34:26;;;;;;;5.97;4.73;;;16.10;72.10;;;18.77;54.48;100877.97;5115865;28;20231;-61
2022/06/08 03:36:54;;;;;;;7.97;6.00;;;16.10;72.40;;;18.87;54.46;100872.09;5075531;28;20200;-60
2022/06/08 03:39:21;;;;;;;7.50;6.00;;;16.20;72.80;;;18.98;54.37;100868.66;5044206;28;20202;-61
2022/06/08 03:41:49;;;;;;;7.33;6.00;;;16.20;72.60;;;19.11;53.96;100878.34;5010634;28;20271;-59
2022/06/08 03:45:32;;;;;;;5.83;5.27;;;16.20;72.50;;;19.17;53.90;100877.44;5041378;28;20206;-60
2022/06/08 03:50:40;;;;;;;6.97;6.03;;;16.40;72.20;;;19.31;53.47;100869.00;5171976;27;20649;-56
2022/06/08 03:53:14;;;;;;;10.70;6.67;;;16.50;71.50;;;19.31;53.19;100862.84;5132153;27;20227;-59
2022/06/08 03:55:42;;;;;;;7.93;6.83;;;16.50;71.30;;;19.29;53.17;100865.75;5126199;27;20279;-58
2022/06/08 03:58:09;;;;;;;8.13;6.97;;;16.60;71.30;;;19.23;53.17;100871.19;5141406;27;20194;-58
2022/06/08 04:00:36;;;;;;;8.57;7.70;;;16.60;71.10;;;19.17;53.27;100870.25;5091002;28;20190;-60
2022/06/08 04:03:05;;;;;;;7.30;6.60;;;16.50;71.10;;;19.09;53.51;100870.56;5072127;28;20188;-61
2022/06/08 04:05:50;;;;;;;8.73;7.80;;;16.50;71.30;;;19.04;54.19;100874.97;4987697;28;20731;-59
2022/06/08 04:08:17;;;;;;;8.03;7.23;;;16.40;71.60;;;19.00;54.07;100873.75;5019621;28;20272;-59
2022/06/08 04:10:58;;;;;;;9.87;8.87;;;16.40;71.70;;;18.97;54.27;100866.22;4979248;28;20895;-60
2022/06/08 04:16:04;;;;;;;9.30;7.83;;;16.40;72.00;;;18.85;54.54;100864.31;5155152;27;20643;-59
2022/06/08 04:18:32;;;;;;;7.20;6.60;;;16.30;72.30;;;18.85;54.49;100868.84;5110962;28;20208;-61
2022/06/08 04:21:02;;;;;;;10.30;7.90;;;16.30;72.40;;;18.86;54.73;100876.63;5130105;28;20186;-61
2022/06/08 04:23:31;;;;;;;9.03;7.47;;;16.20;72.70;;;18.84;54.82;100873.38;5129300;28;20191;-61
2022/06/08 04:25:59;;;;;;;9.43;7.93;;;16.20;72.80;;;18.86;55.11;100875.81;5101062;28;20229;-61
2022/06/08 04:28:27;;;;;;;7.57;6.87;;;16.20;73.00;;;18.91;54.75;100873.28;5074116;28;20314;-61
2022/06/08 04:30:57;;;;;;;8.37;7.57;;;16.20;73.00;;;18.98;54.66;100873.19;5081605;28;20220;-61
2022/06/08 04:36:15;;;;;;;9.80;7.70;;;16.20;73.90;;;19.10;54.56;100876.72;5153758;27;20650;-59
2022/06/08 04:38:42;;;;;;;9.93;7.80;;;16.30;73.30;;;19.09;54.87;100875.09;5129983;28;20191;-61
2022/06/08 04:41:09;;;;;;;8.70;7.80;;;16.30;73.40;;;19.05;55.04;100866.72;5130069;28;20267;-60
2022/06/08 04:43:37;;;;;;;7.83;6.97;;;16.30;73.40;;;19.07;54.75;100861.97;5128826;28;20590;-58
2022/06/08 04:46:04;;;;;;;11.00;6.93;;;16.40;73.50;;;19.13;54.78;100871.75;5105112;28;20232;-60
2022/06/08 04:48:31;;;;;;;9.30;7.03;;;16.40;73.60;;;19.21;54.75;100867.91;5102903;28;20195;-62
2022/06/08 04:51:18;;;;;;;10.47;8.40;;;16.40;73.80;;;19.25;55.00;100875.28;5007300;28;20560;-58
2022/06/08 04:53:47;;;;;;;8.13;6.83;;;16.50;74.20;;;19.28;54.97;100874.78;4885070;29;20228;-60
2022/06/08 04:56:27;;;;;;;9.83;8.13;;;16.50;74.20;;;19.36;54.97;100882.53;5152183;27;20970;-60
2022/06/08 04:58:55;;;;;;;8.90;7.80;;;16.50;74.50;;;19.39;55.12;100874.06;5130355;28;20195;-60
2022/06/08 05:01:23;;;;;;;8.43;7.60;;;16.60;74.50;;;19.43;55.29;100867.22;5129774;28;20563;-59
2022/06/08 05:03:51;;;;;;;9.93;8.43;;;16.60;74.40;;;19.45;55.36;100859.78;5085897;28;20203;-60
2022/06/08 05:06:18;;;;;;;8.73;7.87;;;16.60;74.90;;;19.45;55.59;100858.97;5068613;28;20302;-59
2022/06/08 05:08:45;;;;;;;9.73;8.83;;;16.70;74.80;;;19.50;55.69;100857.25;5064638;28;20188;-66
2022/06/08 05:11:19;;;;;;;10.00;8.40;;;16.70;75.00;;;19.50;55.62;100857.25;5084514;28;20192;-59
2022/06/08 05:16:24;;;;;;;7.70;6.90;;;16.70;75.10;;;19.63;55.67;100856.22;5152378;27;20638;-60
2022/06/08 05:18:51;;;;;;;7.73;7.00;;;16.80;75.00;;;19.72;55.36;100849.47;5117864;28;20516;-60
2022/06/08 05:21:18;;;;;;;9.33;8.43;;;16.80;74.90;;;19.75;55.24;100851.69;5091942;28;20200;-61
2022/06/08 05:23:45;;;;;;;9.17;7.40;;;16.90;75.00;;;19.76;55.44;100845.28;5077595;28;20275;-59
2022/06/08 05:26:12;;;;;;;7.80;7.10;;;17.00;75.60;;;19.78;55.29;100848.53;5118801;28;20655;-61
2022/06/08 05:28:39;;;;;;;10.63;7.97;;;17.00;74.80;;;19.84;55.04;100852.97;5097219;28;20295;-57
2022/06/08 05:31:07;;;;;;;11.17;7.90;;;17.00;74.80;;;19.85;55.31;100846.56;5086451;28;20202;-60
2022/06/08 05:33:34;;;;;;;11.57;8.57;;;17.10;75.00;;;19.84;55.38;100852.97;5083334;28;20272;-60
2022/06/08 05:36:01;;;;;;;8.17;7.37;;;17.10;74.90;;;19.90;55.69;100851.22;5053373;28;20306;-60
2022/06/08 05:41:04;;;;;;;8.87;7.93;;;17.10;74.80;;;20.02;55.56;100844.81;5171634;27;20641;-60
2022/06/08 05:43:31;;;;;;;8.57;6.60;;;17.20;75.10;;;20.16;55.35;100846.22;5131789;27;20633;-60
2022/06/08 05:45:58;;;;;;;9.57;8.67;;;17.30;75.10;;;20.25;55.25;100852.84;5139058;27;20552;-59
2022/06/08 05:48:25;;;;;;;12.63;9.23;;;17.40;75.00;;;20.30;54.61;100852.13;5132881;27;20202;-61
2022/06/08 05:50:52;;;;;;;8.17;7.37;;;17.40;74.80;;;20.38;55.05;100848.28;5105244;28;20250;-61
2022/06/08 05:53:19;;;;;;;10.80;9.63;;;17.50;74.70;;;20.46;54.11;100862.13;5056051;28;20637;-60
2022/06/08 05:55:46;;;;;;;9.00;7.60;;;17.60;74.30;;;20.50;54.29;100865.13;5024215;28;20218;-59
2022/06/08 05:58:14;;;;;;;9.83;8.73;;;17.60;74.10;;;20.64;54.33;100863.81;4984221;28;20275;-60
2022/06/08 06:00:40;;;;;;;9.33;8.33;;;17.70;74.10;;;20.78;53.56;100860.63;5000079;28;20284;-60
2022/06/08 06:03:07;;;;;;;9.70;8.63;;;17.80;73.90;;;20.85;53.48;100855.94;4922155;28;20200;-59
2022/06/08 06:05:47;;;;;;;11.47;8.10;;;17.90;73.40;;;20.90;52.91;100860.56;5157300;27;20401;-56
2022/06/08 06:08:14;;;;;;;12.20;9.67;;;18.00;72.80;;;20.85;52.92;100871.19;5129453;28;20238;-61
2022/06/08 06:10:45;;;;;;;12.70;9.63;;;18.00;72.00;;;20.85;53.03;100868.50;5129215;28;20378;-61
2022/06/08 06:13:12;;;;;;;10.63;9.33;;;18.00;72.00;;;20.75;53.16;100871.00;5128431;28;20623;-60
2022/06/08 06:15:39;;;;;;;12.63;9.17;;;18.00;71.40;;;20.69;53.16;100862.06;5108837;28;20252;-59
2022/06/08 06:18:10;;;;;;;10.87;9.03;;;18.10;71.70;;;20.65;52.97;100878.81;5106532;28;20210;-59
2022/06/08 06:20:39;;;;;;;11.43;10.10;;;18.00;71.60;;;20.66;53.42;100875.91;5101591;28;20303;-60
2022/06/08 06:27:13;;;;;;;9.83;8.93;;;18.10;72.10;;;20.71;53.77;100867.16;5170958;27;20956;-61
2022/06/08 06:29:40;;;;;;;11.70;8.67;;;18.10;72.00;;;20.77;53.40;100869.72;5150003;27;20666;-59
2022/06/08 06:32:22;;;;;;;10.13;8.20;;;18.10;71.90;;;20.84;53.50;100872.25;5130975;27;20320;-60
2022/06/08 06:35:00;;;;;;;9.97;8.50;;;18.10;71.90;;;20.96;52.72;100866.84;5043337;28;20623;-60
2022/06/08 06:37:29;;;;;;;10.07;8.70;;;18.20;72.00;;;21.03;53.24;100862.97;4982602;28;20287;-59
2022/06/08 06:39:57;;;;;;;10.70;9.20;;;18.20;71.80;;;21.03;52.50;100862.97;4924442;29;20202;-60
2022/06/08 06:42:30;;;;;;;8.10;7.30;;;18.30;71.60;;;21.05;52.90;100862.75;4969432;28;20277;-59
2022/06/08 06:48:38;;;;;;;11.10;9.67;;;18.30;71.30;;;21.17;52.06;100861.66;5157429;27;20650;-58
2022/06/08 06:51:07;;;;;;;9.23;8.33;;;18.50;70.20;;;21.19;51.53;100862.22;5111906;27;20343;-60
2022/06/08 06:53:34;;;;;;;10.40;9.30;;;18.50;69.80;;;21.07;52.39;100856.09;5149894;27;20285;-60
2022/06/08 06:56:01;;;;;;;12.33;9.83;;;18.50;69.80;;;21.10;52.32;100863.66;5126527;27;20291;-58
2022/06/08 06:58:28;;;;;;;11.20;9.13;;;18.60;70.20;;;21.20;52.25;100858.50;5088574;28;20227;-57
2022/06/08 07:00:59;;;;;;;9.73;8.77;;;18.60;70.50;;;21.35;52.51;100856.06;5074018;28;20213;-59
2022/06/08 07:03:26;;;;;;;10.83;9.73;;;18.70;70.70;;;21.43;52.13;100853.00;5092453;28;20232;-61
2022/06/08 07:05:53;;;;;;;12.97;11.57;;;18.80;70.70;;;21.43;52.39;100853.00;5061818;28;20217;-61
2022/06/08 07:08:20;;;;;;;13.97;10.73;;;18.80;70.50;;;21.48;52.42;100854.94;4919166;28;20243;-61
2022/06/08 07:13:24;;;;;;;12.10;9.57;;;18.90;70.50;;;21.80;51.66;100847.16;5170876;27;20641;-59
2022/06/08 07:15:51;;;;;;;14.03;11.23;;;19.00;70.50;;;21.87;51.82;100837.09;5133912;27;20271;-61
2022/06/08 07:18:18;;;;;;;13.70;11.27;;;19.10;70.30;;;21.82;51.49;100834.31;5146404;27;20218;-60
2022/06/08 07:20:45;;;;;;;10.03;8.37;;;19.20;70.10;;;21.88;51.77;100828.81;5148605;27;20646;-60
2022/06/08 07:23:11;;;;;;;10.87;9.77;;;19.30;70.20;;;22.00;51.79;100826.00;5131939;27;20207;-59
2022/06/08 07:25:38;;;;;;;10.57;9.60;;;19.30;70.20;;;22.11;51.81;100827.75;5076909;28;20246;-60
2022/06/08 07:28:06;;;;;;;12.63;11.27;;;19.40;69.90;;;22.25;51.33;100812.94;5075972;28;20606;-61
2022/06/08 07:30:34;;;;;;;12.07;10.97;;;19.50;69.60;;;22.32;51.04;100804.72;5063621;28;20275;-62
2022/06/08 07:33:00;;;;;;;10.53;9.53;;;19.60;69.70;;;22.48;51.22;100807.34;5014062;28;20291;-61
2022/06/08 07:38:05;;;;;;;12.70;11.50;;;19.70;69.70;;;22.81;49.89;100807.19;5171232;27;20617;-59
2022/06/08 07:40:33;;;;;;;10.90;9.93;;;20.00;68.40;;;23.05;49.85;100810.38;5150013;27;20277;-61
2022/06/08 07:43:00;;;;;;;11.87;10.73;;;20.20;68.60;;;23.26;48.56;100814.03;5147275;27;20223;-59
2022/06/08 07:45:26;;;;;;;9.90;9.00;;;20.30;67.00;;;23.51;48.60;100798.94;5147202;27;20263;-61
2022/06/08 07:50:38;;;;;;;11.63;10.60;;;20.70;66.00;;;23.80;47.37;100796.72;5000710;28;20224;-66
2022/06/08 07:53:06;;;;;;;12.63;11.30;;;20.80;65.60;;;23.90;47.68;100794.09;4913971;28;20220;-65
2022/06/08 07:55:32;;;;;;;12.07;10.77;;;21.00;65.70;;;23.97;47.42;100789.28;4826722;28;20346;-61
2022/06/08 08:00:36;;;;;;;14.37;12.93;;;21.10;65.10;;;24.26;46.45;100791.59;5139861;27;20557;-63
2022/06/08 08:03:03;;;;;;;14.97;13.37;;;21.30;64.30;;;24.40;46.17;100792.72;5100817;28;20211;-63
2022/06/08 08:05:37;;;;;;;15.37;13.57;;;21.40;63.70;;;24.51;46.48;100783.63;5084123;28;20751;-62
2022/06/08 08:08:06;;;;;;;12.97;11.77;;;21.60;63.90;;;24.80;46.41;100779.38;5034015;28;20233;-62
2022/06/08 08:10:33;;;;;;;15.20;13.70;;;21.70;64.10;;;25.10;45.88;100776.75;5005201;28;20302;-60
2022/06/08 08:12:59;;;;;;;16.30;14.37;;;21.90;64.20;;;25.39;45.55;100767.00;4855543;29;20661;-58
2022/06/08 08:15:27;;;;;;;13.57;12.27;;;22.10;63.50;;;25.75;45.09;100772.34;4736207;29;20249;-60
2022/06/08 08:21:04;;;;;;;15.30;13.77;;;22.60;62.80;;;26.19;43.02;100773.34;5137542;27;20542;-61
2022/06/08 08:23:31;;;;;;;15.57;14.10;;;22.80;61.30;;;26.31;42.93;100760.31;5102670;28;20206;-62
2022/06/08 08:25:59;;;;;;;17.63;16.00;;;22.90;60.20;;;26.30;43.17;100764.09;5055641;28;20766;-61
2022/06/08 08:28:25;;;;;;;17.60;15.90;;;23.00;60.00;;;26.46;43.22;100751.34;5010911;28;20223;-60
2022/06/08 08:30:52;;;;;;;17.47;15.80;;;23.10;60.50;;;26.57;42.18;100742.06;4946600;28;20295;-60
2022/06/08 08:33:26;;;;;;;16.83;15.20;;;23.30;59.60;;;26.59;41.81;100751.50;4806775;29;21159;-59
2022/06/08 08:35:54;;;;;;;17.23;15.63;;;23.40;59.20;;;26.49;41.61;100750.75;4726733;29;20261;-61
2022/06/08 08:41:04;;;;;;;18.37;16.77;;;23.40;58.50;;;26.34;41.70;100742.75;5135663;27;20574;-62
2022/06/08 08:43:35;;;;;;;17.33;15.73;;;23.40;58.20;;;26.57;41.34;100742.88;5087135;28;20256;-62
2022/06/08 08:46:25;;;;;;;17.13;15.53;;;23.40;57.60;;;26.82;39.40;100739.22;5068457;28;20235;-61
2022/06/08 08:48:59;;;;;;;15.37;13.93;;;23.50;55.70;;;27.08;39.88;100732.50;5007145;28;20218;-61
2022/06/08 08:51:40;;;;;;;16.67;15.17;;;23.60;56.60;;;27.36;40.09;100734.41;4953823;28;20209;-60
2022/06/08 08:54:22;;;;;;;17.20;15.70;;;23.80;57.10;;;27.50;39.91;100740.78;4764040;29;20212;-61
2022/06/08 08:56:59;;;;;;;14.90;13.50;;;23.90;56.70;;;27.88;38.43;100730.91;4598557;30;21898;-64
2022/06/08 08:59:25;;;;;;;14.50;13.07;;;24.10;56.40;;;28.29;36.81;100730.41;4449625;31;20243;-60
2022/06/08 09:04:34;;;;;;;13.43;12.23;;;24.30;53.70;;;29.41;35.11;100729.16;5124021;27;21057;-61
2022/06/08 09:07:13;;;;;;;16.43;15.03;;;24.90;52.90;;;29.46;34.60;100728.25;5053772;28;20224;-60
2022/06/08 09:09:40;;;;;;;13.70;12.40;;;25.10;52.10;;;29.79;34.78;100726.28;5060709;28;20206;-58
2022/06/08 09:12:13;;;;;;;14.37;13.07;;;25.50;52.00;;;29.90;34.61;100722.28;4996196;28;20239;-59
2022/06/08 09:15:00;;;;;;;12.37;11.30;;;25.80;51.40;;;29.86;34.11;100726.69;4896743;28;20310;-60
2022/06/08 09:17:33;;;;;;;13.17;11.90;;;25.90;50.00;;;29.59;33.85;100721.25;4790857;29;20314;-61
2022/06/08 09:20:21;;;;;;;13.60;12.40;;;25.90;48.90;;;29.37;34.17;100719.22;4703388;30;20220;-60
2022/06/08 09:22:48;;;;;;;13.00;11.70;;;25.80;49.20;;;29.28;35.02;100721.81;4504010;30;20263;-65
2022/06/08 09:25:13;;;;;;;14.63;13.40;;;25.80;49.50;;;29.49;34.29;100723.06;4384360;32;20651;-60
2022/06/08 09:27:56;;;;;;;15.53;14.13;;;25.90;49.60;;;29.62;34.67;100716.00;5171000;27;20614;-58
2022/06/08 09:30:26;;;;;;;13.27;12.10;;;25.90;49.70;;;29.67;34.58;100712.41;5119550;28;20203;-60
2022/06/08 09:33:17;;;;;;;13.37;12.17;;;26.00;50.10;;;29.69;34.98;100715.63;5121904;27;20206;-60
2022/06/08 09:35:55;;;;;;;14.03;12.67;;;26.00;50.20;;;29.61;33.95;100702.75;5091487;27;20300;-60
2022/06/08 09:38:26;;;;;;;14.27;12.90;;;26.00;49.10;;;29.26;34.14;100702.31;5084417;28;20209;-60
2022/06/08 09:41:05;;;;;;;14.50;13.10;;;25.90;48.70;;;29.22;33.80;100701.31;4955021;28;20213;-61
2022/06/08 09:53:39;;;;;;;14.13;12.73;;;26.20;48.90;;;29.94;33.22;100693.41;5037231;28;20206;-61
2022/06/08 09:56:20;;;;;;;15.10;13.60;;;26.30;47.80;;;29.37;34.26;100690.19;4937939;28;20229;-61
2022/06/08 09:59:19;;;;;;;15.43;13.93;;;26.30;47.80;;;29.26;34.21;100688.75;4819181;29;20358;-61
2022/06/08 10:01:55;;;;;;;12.87;11.67;;;26.00;48.00;;;29.97;32.82;100690.91;4711937;29;20227;-59
2022/06/08 10:04:31;;;;;;;10.43;9.43;;;26.00;47.60;;;30.75;32.50;100693.19;4494980;31;20293;-63
2022/06/08 10:09:47;;;;;;;10.43;9.43;;;26.30;48.00;;;31.25;30.60;100687.56;5121695;27;20391;-59
2022/06/08 10:12:38;;;;;;;10.17;9.23;;;26.90;46.20;;;30.83;31.79;100697.84;5064962;28;20219;-61
2022/06/08 10:15:23;;;;;;;9.87;8.77;;;27.00;45.80;;;30.67;31.32;100682.22;5049536;28;20222;-61
2022/06/08 10:17:57;;;;;;;9.87;8.97;;;27.00;45.40;;;30.98;31.30;100683.09;5000805;28;20205;-61
2022/06/08 10:20:34;;;;;;;9.13;8.33;;;27.00;45.20;;;31.03;31.29;100685.69;4870103;29;20207;-63
2022/06/08 10:23:18;;;;;;;8.03;7.27;;;27.10;45.30;;;31.13;30.94;100677.25;4739873;29;20691;-61
2022/06/08 10:28:48;;;;;;;8.77;7.97;;;27.30;45.80;;;33.69;27.53;100681.16;5132424;27;20562;-60
2022/06/08 10:31:23;;;;;;;7.83;7.13;;;27.80;44.00;;;34.56;26.51;100677.50;5105695;27;20251;-63
2022/06/08 10:34:03;;;;;;;8.60;7.80;;;28.30;42.40;;;35.32;25.04;100674.28;5100158;28;20227;-62
2022/06/08 10:36:40;;;;;;;8.80;8.00;;;28.70;40.50;;;35.04;25.18;100670.59;5068086;28;20284;-62
2022/06/08 10:39:08;;;;;;;7.07;6.57;;;29.20;40.00;;;35.42;25.47;100673.03;4992200;28;20288;-60
2022/06/08 10:44:48;;;;;;;7.40;6.70;;;29.80;38.30;;;35.57;24.96;100675.09;4757349;29;20219;-58
2022/06/08 10:47:29;;;;;;;7.73;7.17;;;30.10;38.10;;;34.19;25.69;100674.88;4471361;30;20348;-60
2022/06/08 10:52:44;;;;;;;7.83;7.13;;;29.90;36.80;;;31.84;28.70;100662.47;5117425;27;21087;-61
2022/06/08 10:55:43;;;;;;;7.50;6.90;;;29.00;38.00;;;30.83;29.74;100659.78;5078834;28;20657;-61
2022/06/08 10:58:15;;;;;;;6.73;6.20;;;28.50;39.00;;;30.46;30.75;100660.19;4974890;28;21772;-59
2022/06/08 11:01:18;;;;;;;6.23;5.73;;;28.10;40.00;;;29.95;31.55;100667.88;4985760;28;20224;-60
2022/06/08 11:03:58;;;;;;;6.20;5.70;;;27.70;41.30;;;29.55;32.17;100655.91;4801514;29;20222;-59
2022/06/08 11:07:00;;;;;;;7.17;6.57;;;27.20;42.30;;;29.37;32.08;100654.91;4724717;29;20823;-59
2022/06/08 11:13:49;;;;;;;8.60;7.07;;;27.00;43.10;;;29.11;32.77;100661.06;5135127;27;20543;-58
2022/06/08 11:16:31;;;;;;;7.87;7.07;;;26.60;44.10;;;28.92;33.22;100663.88;5070307;28;20217;-59
2022/06/08 11:19:10;;;;;;;6.03;5.53;;;26.50;44.50;;;28.84;33.59;100662.63;5028827;28;20210;-59
2022/06/08 11:21:44;;;;;;;6.50;6.00;;;26.30;45.00;;;28.78;33.64;100654.91;5023387;28;20782;-63
2022/06/08 11:24:26;;;;;;;6.93;6.00;;;26.10;45.40;;;28.63;33.62;100655.94;4973608;28;20629;-58
2022/06/08 11:27:29;;;;;;;7.67;6.87;;;26.00;45.10;;;28.54;33.70;100656.88;4679867;29;20214;-60
2022/06/08 11:33:16;;;;;;;7.33;6.63;;;25.90;45.20;;;28.35;34.72;100647.97;5133410;27;21256;-62
2022/06/08 11:36:10;;;;;;;8.47;7.67;;;25.70;46.50;;;28.36;34.75;100649.59;5059930;28;20322;-59
2022/06/08 11:38:57;;;;;;;7.50;6.90;;;25.70;47.00;;;28.19;34.84;100636.59;5033512;28;20497;-59
2022/06/08 11:41:36;;;;;;;8.67;7.87;;;25.60;46.90;;;28.06;34.74;100630.00;5046420;28;20200;-62
2022/06/08 11:44:13;;;;;;;6.40;5.90;;;25.50;46.70;;;28.09;34.57;100632.13;4899259;28;20207;-59
2022/06/08 11:46:44;;;;;;;7.00;6.40;;;25.50;46.70;;;28.38;34.10;100628.44;4779261;29;20234;-61
2022/06/08 11:49:56;;;;;;;7.20;6.60;;;25.50;46.70;;;28.69;34.18;100626.88;4646633;30;20226;-58
2022/06/08 11:52:24;;;;;;;5.97;5.53;;;25.60;47.10;;;29.02;34.16;100624.91;4386702;32;20341;-59
2022/06/08 11:57:24;;;;;;;7.93;7.23;;;25.80;47.40;;;29.48;33.09;100618.31;5118092;27;20326;-59
2022/06/08 11:59:55;;;;;;;9.10;8.20;;;26.20;46.00;;;29.62;32.40;100617.53;5094208;28;20208;-60
2022/06/08 12:02:26;;;;;;;7.67;6.97;;;26.30;45.80;;;29.50;33.08;100620.75;5052551;28;20217;-60
2022/06/08 12:04:57;;;;;;;8.63;7.73;;;26.40;45.80;;;29.28;32.95;100618.75;5000190;28;20227;-63